createdAt,value
2018-06-07T00:00:40.549Z,18.82
2018-06-07T00:03:09.697Z,18.79
2018-06-07T00:05:38.874Z,18.78
2018-06-07T00:08:08.029Z,18.76
2018-06-07T00:10:37.400Z,18.76
2018-06-07T00:13:06.377Z,18.72
2018-06-07T00:15:35.549Z,18.70
2018-06-07T00:18:04.741Z,18.76
2018-06-07T00:20:33.884Z,18.72
2018-06-07T00:23:03.041Z,18.66
2018-06-07T00:25:32.203Z,18.63
2018-06-07T00:28:01.352Z,18.60
2018-06-07T00:30:30.497Z,18.54
2018-06-07T00:32:59.661Z,18.53
2018-06-07T00:35:34.039Z,18.42
2018-06-07T00:38:03.201Z,18.39
2018-06-07T00:40:32.357Z,18.39
2018-06-07T00:43:01.542Z,18.35
2018-06-07T00:45:30.700Z,18.44
2018-06-07T00:47:59.881Z,18.41
2018-06-07T00:50:29.036Z,18.41
2018-06-07T00:52:58.284Z,18.42
2018-06-07T00:55:27.449Z,18.43
2018-06-07T00:57:56.721Z,18.41
2018-06-07T01:00:25.904Z,18.37
2018-06-07T01:02:55.881Z,18.23
2018-06-07T01:05:25.056Z,18.19
2018-06-07T01:07:54.237Z,18.25
2018-06-07T01:10:23.440Z,18.28
2018-06-07T01:12:52.590Z,18.30
2018-06-07T01:15:21.738Z,18.24
2018-06-07T01:17:50.906Z,18.17
2018-06-07T01:20:20.057Z,18.17
2018-06-07T01:22:49.222Z,18.19
2018-06-07T01:25:18.373Z,18.26
2018-06-07T01:27:47.522Z,18.30
2018-06-07T01:30:33.069Z,18.17
2018-06-07T01:33:51.715Z,18.23
2018-06-07T01:36:20.885Z,18.16
2018-06-07T01:39:07.283Z,18.20
2018-06-07T01:41:36.904Z,18.24
2018-06-07T01:44:06.058Z,18.07
2018-06-07T01:46:35.217Z,18.09
2018-06-07T01:49:04.392Z,18.03
2018-06-07T01:51:33.537Z,18.07
2018-06-07T01:54:02.777Z,18.13
2018-06-07T01:56:31.941Z,18.18
2018-06-07T01:59:01.091Z,18.21
2018-06-07T02:01:30.248Z,18.23
2018-06-07T02:03:59.485Z,18.22
2018-06-07T02:06:28.872Z,18.15
2018-06-07T02:08:58.029Z,18.17
2018-06-07T02:11:27.175Z,18.14
2018-06-07T02:13:56.340Z,18.17
2018-06-07T02:16:25.501Z,18.21
2018-06-07T02:18:54.662Z,18.19
2018-06-07T02:21:23.808Z,18.20
2018-06-07T02:23:54.211Z,18.13
2018-06-07T02:26:23.361Z,18.10
2018-06-07T02:28:52.521Z,18.12
2018-06-07T02:31:21.681Z,18.05
2018-06-07T02:33:50.837Z,18.06
2018-06-07T02:36:20.008Z,18.03
2018-06-07T02:38:49.153Z,18.00
2018-06-07T02:41:18.307Z,18.03
2018-06-07T02:43:47.569Z,18.04
2018-06-07T02:46:16.714Z,18.00
2018-06-07T02:48:45.871Z,17.96
2018-06-07T02:51:15.029Z,17.93
2018-06-07T02:53:44.254Z,17.92
2018-06-07T02:56:13.420Z,17.95
2018-06-07T02:58:42.573Z,18.03
2018-06-07T03:01:11.730Z,18.06
2018-06-07T03:03:40.897Z,18.03
2018-06-07T03:06:10.057Z,17.98
2018-06-07T03:08:39.196Z,18.03
2018-06-07T03:11:08.366Z,18.02
2018-06-07T03:13:37.524Z,18.04
2018-06-07T03:16:06.681Z,18.02
2018-06-07T03:18:35.849Z,18.05
2018-06-07T03:21:04.989Z,18.05
2018-06-07T03:23:34.141Z,18.05
2018-06-07T03:26:03.301Z,17.96
2018-06-07T03:28:32.509Z,17.99
2018-06-07T03:31:01.802Z,18.05
2018-06-07T03:33:30.731Z,18.07
2018-06-07T03:35:59.873Z,18.07
2018-06-07T03:38:29.038Z,18.10
2018-06-07T03:40:58.224Z,18.09
2018-06-07T03:43:27.496Z,18.09
2018-06-07T03:45:56.653Z,18.12
2018-06-07T03:49:54.887Z,18.13
2018-06-07T03:52:24.067Z,18.13
2018-06-07T03:54:53.182Z,18.14
2018-06-07T03:57:22.337Z,18.16
2018-06-07T03:59:51.577Z,18.17
2018-06-07T04:02:20.747Z,18.18
2018-06-07T04:04:49.889Z,18.19
2018-06-07T04:07:19.045Z,18.23
2018-06-07T04:09:48.186Z,18.23
2018-06-07T04:12:17.333Z,18.23
2018-06-07T04:14:46.505Z,18.20
2018-06-07T04:17:15.654Z,18.24
2018-06-07T04:19:44.809Z,18.21
2018-06-07T04:22:13.957Z,18.21
2018-06-07T04:24:43.125Z,18.17
2018-06-07T04:27:12.293Z,18.19
2018-06-07T04:29:41.455Z,18.19
2018-06-07T04:32:16.902Z,18.15
2018-06-07T04:34:46.082Z,18.26
2018-06-07T04:37:15.230Z,18.30
2018-06-07T04:39:44.377Z,18.25
2018-06-07T04:42:13.682Z,18.36
2018-06-07T04:44:42.845Z,18.53
2018-06-07T04:47:11.993Z,18.51
2018-06-07T04:49:41.162Z,18.45
2018-06-07T04:52:10.313Z,18.50
2018-06-07T04:54:39.468Z,18.53
2018-06-07T04:57:08.770Z,18.52
2018-06-07T04:59:37.905Z,18.52
2018-06-07T05:02:07.053Z,18.54
2018-06-07T05:04:36.213Z,18.48
2018-06-07T05:07:05.399Z,18.45
2018-06-07T05:09:34.551Z,18.44
2018-06-07T05:12:03.705Z,18.40
2018-06-07T05:14:32.851Z,18.35
2018-06-07T05:17:01.998Z,18.41
2018-06-07T05:19:31.221Z,18.49
2018-06-07T05:22:00.369Z,18.57
2018-06-07T05:24:29.530Z,18.58
2018-06-07T05:26:58.715Z,18.63
2018-06-07T05:29:27.821Z,18.68
2018-06-07T05:31:57.046Z,18.67
2018-06-07T05:34:26.159Z,18.75
2018-06-07T05:36:55.794Z,18.91
2018-06-07T05:39:24.943Z,18.88
2018-06-07T05:41:54.089Z,18.93
2018-06-07T05:44:23.286Z,18.95
2018-06-07T05:46:52.511Z,18.98
2018-06-07T05:49:21.661Z,19.01
2018-06-07T05:51:50.830Z,19.07
2018-06-07T05:54:23.128Z,19.18
2018-06-07T05:56:52.721Z,19.30
2018-06-07T05:59:21.870Z,19.39
2018-06-07T06:01:51.021Z,19.51
2018-06-07T06:04:20.296Z,19.58
2018-06-07T06:06:49.442Z,19.72
2018-06-07T06:09:18.652Z,19.80
2018-06-07T06:11:47.766Z,19.72
2018-06-07T06:14:16.929Z,19.77
2018-06-07T06:16:46.072Z,19.82
2018-06-07T06:19:15.249Z,19.85
2018-06-07T06:21:44.406Z,19.86
2018-06-07T06:24:13.571Z,19.87
2018-06-07T06:26:42.720Z,19.90
2018-06-07T06:29:11.866Z,20.09
2018-06-07T06:31:41.029Z,20.21
2018-06-07T06:34:10.217Z,20.32
2018-06-07T06:36:39.411Z,20.45
2018-06-07T06:39:08.968Z,20.53
2018-06-07T06:41:38.089Z,20.66
2018-06-07T06:44:07.333Z,20.81
2018-06-07T06:46:36.489Z,20.92
2018-06-07T06:49:05.877Z,21.03
2018-06-07T06:51:35.045Z,21.14
2018-06-07T06:54:04.205Z,21.08
2018-06-07T06:56:33.367Z,20.96
2018-06-07T06:59:02.693Z,21.06
2018-06-07T07:01:31.837Z,21.22
2018-06-07T07:04:00.994Z,21.31
2018-06-07T07:06:30.293Z,21.36
2018-06-07T07:08:59.264Z,21.31
2018-06-07T07:11:28.371Z,21.38
2018-06-07T07:13:57.525Z,21.58
2018-06-07T07:16:26.678Z,21.77
2018-06-07T07:18:55.842Z,21.68
2018-06-07T07:21:25.017Z,21.64
2018-06-07T07:23:54.162Z,21.71
2018-06-07T07:26:23.321Z,21.78
2018-06-07T07:28:52.488Z,21.86
2018-06-07T07:31:21.648Z,21.85
2018-06-07T07:33:50.810Z,21.74
2018-06-07T07:36:19.969Z,21.55
2018-06-07T07:38:49.133Z,21.58
2018-06-07T07:41:18.497Z,21.49
2018-06-07T07:43:47.649Z,21.66
2018-06-07T07:46:16.813Z,21.50
2018-06-07T07:48:45.964Z,21.38
2018-06-07T07:51:15.129Z,21.34
2018-06-07T07:53:44.293Z,21.49
2018-06-07T07:56:13.453Z,21.56
2018-06-07T07:58:42.602Z,21.60
2018-06-07T08:01:11.757Z,21.59
2018-06-07T08:03:40.893Z,21.66
2018-06-07T08:06:10.095Z,21.76
2018-06-07T08:08:39.257Z,21.89
2018-06-07T08:11:08.565Z,21.96
2018-06-07T08:13:37.721Z,21.94
2018-06-07T08:16:06.914Z,22.01
2018-06-07T08:18:36.078Z,22.02
2018-06-07T08:21:05.225Z,22.00
2018-06-07T08:23:34.389Z,22.08
2018-06-07T08:26:03.565Z,22.23
2018-06-07T08:28:32.727Z,22.21
2018-06-07T08:31:01.875Z,22.15
2018-06-07T08:33:31.029Z,22.18
2018-06-07T08:36:00.182Z,22.43
2018-06-07T08:38:29.350Z,22.40
2018-06-07T08:40:58.518Z,22.24
2018-06-07T08:43:27.678Z,22.33
2018-06-07T08:45:56.997Z,22.38
2018-06-07T08:48:26.153Z,22.35
2018-06-07T08:50:55.309Z,22.31
2018-06-07T08:53:24.460Z,22.30
2018-06-07T08:55:53.609Z,22.40
2018-06-07T08:58:22.777Z,22.43
2018-06-07T09:00:51.926Z,22.42
2018-06-07T09:03:21.074Z,22.53
2018-06-07T09:05:50.656Z,22.82
2018-06-07T09:08:19.801Z,23.19
2018-06-07T09:10:48.949Z,23.41
2018-06-07T09:13:18.352Z,23.33
2018-06-07T09:15:47.493Z,23.30
2018-06-07T09:18:16.653Z,23.43
2018-06-07T09:20:45.824Z,23.27
2018-06-07T09:23:14.998Z,23.27
2018-06-07T09:25:44.154Z,23.03
2018-06-07T09:28:13.302Z,22.95
2018-06-07T09:30:42.491Z,23.08
2018-06-07T09:33:11.633Z,23.01
2018-06-07T09:35:40.778Z,22.96
2018-06-07T09:38:10.206Z,22.93
2018-06-07T09:40:39.349Z,22.93
2018-06-07T09:43:08.497Z,22.78
2018-06-07T09:45:37.668Z,22.69
2018-06-07T09:48:06.858Z,22.71
2018-06-07T09:50:36.003Z,22.81
2018-06-07T09:53:05.162Z,22.86
2018-06-07T09:55:34.609Z,22.92
2018-06-07T09:58:03.799Z,22.93
2018-06-07T10:00:32.912Z,22.94
2018-06-07T10:03:02.078Z,22.89
2018-06-07T10:05:31.310Z,22.90
2018-06-07T10:08:00.469Z,22.88
2018-06-07T10:10:29.797Z,22.92
2018-06-07T10:12:58.945Z,23.14
2018-06-07T10:15:28.110Z,23.33
2018-06-07T10:17:57.273Z,23.56
2018-06-07T10:20:26.429Z,23.86
2018-06-07T10:22:55.821Z,23.93
2018-06-07T10:25:24.985Z,24.10
2018-06-07T10:27:54.157Z,24.05
2018-06-07T10:30:23.316Z,24.05
2018-06-07T10:32:52.488Z,23.98
2018-06-07T10:35:21.653Z,23.85
2018-06-07T10:37:50.812Z,24.03
2018-06-07T10:40:19.965Z,24.18
2018-06-07T10:42:49.126Z,24.22
2018-06-07T10:45:18.277Z,24.28
2018-06-07T10:47:47.486Z,24.33
2018-06-07T10:50:16.879Z,24.27
2018-06-07T10:52:45.787Z,24.32
2018-06-07T10:55:14.946Z,24.46
2018-06-07T10:57:44.165Z,24.37
2018-06-07T11:00:13.353Z,24.39
2018-06-07T11:02:42.938Z,24.64
2018-06-07T11:05:12.090Z,24.68
2018-06-07T11:07:41.238Z,24.70
2018-06-07T11:10:10.193Z,24.75
2018-06-07T11:12:39.350Z,24.93
2018-06-07T11:15:08.732Z,25.38
2018-06-07T11:17:37.897Z,25.47
2018-06-07T11:20:07.065Z,25.42
2018-06-07T11:22:36.529Z,25.51
2018-06-07T11:25:05.697Z,25.62
2018-06-07T11:27:34.849Z,25.79
2018-06-07T11:30:06.072Z,25.70
2018-06-07T11:32:34.995Z,25.62
2018-06-07T11:35:04.169Z,25.53
2018-06-07T11:37:33.333Z,25.55
2018-06-07T11:40:02.493Z,25.56
2018-06-07T11:42:31.653Z,25.52
2018-06-07T11:45:00.810Z,25.36
2018-06-07T11:47:29.969Z,25.30
2018-06-07T11:49:59.137Z,25.18
2018-06-07T11:52:28.385Z,25.19
2018-06-07T11:54:57.575Z,25.44
2018-06-07T11:57:26.693Z,25.51
2018-06-07T11:59:56.140Z,25.52
2018-06-07T12:02:25.297Z,25.49
2018-06-07T12:04:54.460Z,25.37
2018-06-07T12:07:23.628Z,25.28
2018-06-07T12:09:52.777Z,25.10
2018-06-07T12:12:21.969Z,24.93
2018-06-07T12:14:51.129Z,24.92
2018-06-07T12:17:20.292Z,24.98
2018-06-07T12:19:49.621Z,25.32
2018-06-07T12:22:18.777Z,25.37
2018-06-07T12:24:47.950Z,25.45
2018-06-07T12:27:17.162Z,25.55
2018-06-07T12:29:46.606Z,25.71
2018-06-07T12:32:15.758Z,25.84
2018-06-07T12:34:44.933Z,25.92
2018-06-07T12:37:14.113Z,26.00
2018-06-07T12:39:43.295Z,25.96
2018-06-07T12:42:12.462Z,25.96
2018-06-07T12:44:41.621Z,25.84
2018-06-07T12:47:10.789Z,25.71
2018-06-07T12:49:39.945Z,25.61
2018-06-07T12:52:09.114Z,25.45
2018-06-07T12:54:38.265Z,25.27
2018-06-07T12:57:07.453Z,25.19
2018-06-07T12:59:36.597Z,25.09
2018-06-07T13:02:05.800Z,25.03
2018-06-07T13:04:34.965Z,25.01
2018-06-07T13:07:04.409Z,25.01
2018-06-07T13:09:33.586Z,24.97
2018-06-07T13:12:02.881Z,24.99
2018-06-07T13:14:32.096Z,25.11
2018-06-07T13:17:01.246Z,25.07
2018-06-07T13:19:30.415Z,24.99
2018-06-07T13:21:59.565Z,25.07
2018-06-07T13:24:28.729Z,25.15
2018-06-07T13:26:57.893Z,25.16
2018-06-07T13:29:27.047Z,25.24
2018-06-07T13:31:56.306Z,25.38
2018-06-07T13:34:25.454Z,25.54
2018-06-07T13:36:54.613Z,25.64
2018-06-07T13:39:23.776Z,25.75
2018-06-07T13:41:52.926Z,25.91
2018-06-07T13:44:22.095Z,26.00
2018-06-07T13:46:51.243Z,26.02
2018-06-07T13:49:20.555Z,25.83
2018-06-07T13:51:49.717Z,25.81
2018-06-07T13:54:18.883Z,25.72
2018-06-07T13:56:48.325Z,25.66
2018-06-07T13:59:17.486Z,25.58
2018-06-07T14:01:46.653Z,25.45
2018-06-07T14:04:15.824Z,25.44
2018-06-07T14:06:44.982Z,25.35
2018-06-07T14:09:14.149Z,25.28
2018-06-07T14:11:43.310Z,25.34
2018-06-07T14:14:12.456Z,25.24
2018-06-07T14:16:41.621Z,25.25
2018-06-07T14:19:10.772Z,25.15
2018-06-07T14:21:39.921Z,25.15
2018-06-07T14:24:09.092Z,25.04
2018-06-07T14:26:38.237Z,25.00
2018-06-07T14:29:07.436Z,25.00
2018-06-07T14:31:36.594Z,24.97
2018-06-07T14:34:05.815Z,24.96
2018-06-07T14:36:34.960Z,24.94
2018-06-07T14:39:06.325Z,24.96
2018-06-07T14:41:35.503Z,24.98
2018-06-07T14:44:04.666Z,24.95
2018-06-07T14:46:33.833Z,24.87
2018-06-07T14:49:02.989Z,24.87
2018-06-07T14:51:32.157Z,24.89
2018-06-07T14:54:01.350Z,24.82
2018-06-07T14:56:30.522Z,24.84
2018-06-07T14:58:59.735Z,24.86
2018-06-07T15:01:29.206Z,24.88
2018-06-07T15:03:58.365Z,24.89
2018-06-07T15:06:27.513Z,24.91
2018-06-07T15:08:56.673Z,24.93
2018-06-07T15:11:25.881Z,24.90
2018-06-07T15:13:55.277Z,24.80
2018-06-07T15:16:24.430Z,24.59
2018-06-07T15:18:53.615Z,24.22
2018-06-07T15:21:22.757Z,24.07
2018-06-07T15:23:52.019Z,23.74
2018-06-07T15:26:21.201Z,23.51
2018-06-07T15:28:50.337Z,23.40
2018-06-07T15:31:19.514Z,23.25
2018-06-07T15:33:48.673Z,23.21
2018-06-07T15:36:17.849Z,23.03
2018-06-07T15:38:47.001Z,22.95
2018-06-07T15:41:16.154Z,22.97
2018-06-07T15:43:45.309Z,22.69
2018-06-07T15:46:14.479Z,22.65
2018-06-07T15:48:43.639Z,22.59
2018-06-07T15:51:12.815Z,22.52
2018-06-07T15:53:42.101Z,22.52
2018-06-07T15:56:11.245Z,22.57
2018-06-07T15:58:40.397Z,22.59
2018-06-07T16:01:09.543Z,22.58
2018-06-07T16:03:38.685Z,22.56
2018-06-07T16:06:07.849Z,22.49
2018-06-07T16:08:37.002Z,22.01
2018-06-07T16:11:06.198Z,21.81
2018-06-07T16:13:35.354Z,21.79
2018-06-07T16:16:04.541Z,21.46
2018-06-07T16:18:33.845Z,21.32
2018-06-07T16:21:03.003Z,21.39
2018-06-07T16:23:32.133Z,21.35
2018-06-07T16:26:01.290Z,21.43
2018-06-07T16:28:30.448Z,21.39
2018-06-07T16:30:59.594Z,21.34
2018-06-07T16:33:28.785Z,21.38
2018-06-07T16:35:57.935Z,21.38
2018-06-07T16:38:27.077Z,21.32
2018-06-07T16:40:56.237Z,21.33
2018-06-07T16:43:25.388Z,21.33
2018-06-07T16:45:54.538Z,21.34
2018-06-07T16:48:23.696Z,21.14
2018-06-07T16:50:52.849Z,21.14
2018-06-07T16:53:22.009Z,21.16
2018-06-07T16:55:51.187Z,21.13
2018-06-07T16:58:20.680Z,21.11
2018-06-07T17:00:49.937Z,21.11
2018-06-07T17:03:19.086Z,21.06
2018-06-07T17:05:48.261Z,20.98
2018-06-07T17:08:17.431Z,21.04
2018-06-07T17:10:46.873Z,21.07
2018-06-07T17:13:16.028Z,21.11
2018-06-07T17:15:45.182Z,21.12
2018-06-07T17:18:14.341Z,21.14
2018-06-07T17:20:43.507Z,21.16
2018-06-07T17:23:12.662Z,21.15
2018-06-07T17:25:41.858Z,21.13
2018-06-07T17:28:11.006Z,21.13
2018-06-07T17:30:40.175Z,21.15
2018-06-07T17:33:09.326Z,21.13
2018-06-07T17:35:38.471Z,21.17
2018-06-07T17:38:07.633Z,21.17
2018-06-07T17:40:36.804Z,21.15
2018-06-07T17:43:06.093Z,21.15
2018-06-07T17:45:35.283Z,21.19
2018-06-07T17:48:04.730Z,21.21
2018-06-07T17:50:33.892Z,21.17
2018-06-07T17:53:03.340Z,21.14
2018-06-07T17:55:32.525Z,21.19
2018-06-07T17:58:01.760Z,21.26
2018-06-07T18:00:30.924Z,21.28
2018-06-07T18:03:00.074Z,21.23
2018-06-07T18:05:29.528Z,21.23
2018-06-07T18:07:58.677Z,21.21
2018-06-07T18:10:27.885Z,21.18
2018-06-07T18:12:57.047Z,21.13
2018-06-07T18:15:25.944Z,21.12
2018-06-07T18:17:55.113Z,21.18
2018-06-07T18:20:24.286Z,21.15
2018-06-07T18:22:53.433Z,21.18
2018-06-07T18:25:22.914Z,21.22
2018-06-07T18:27:52.127Z,21.21
2018-06-07T18:30:21.220Z,21.10
2018-06-07T18:32:50.393Z,21.05
2018-06-07T18:35:19.561Z,20.94
2018-06-07T18:37:48.785Z,20.93
2018-06-07T18:40:17.996Z,20.80
2018-06-07T18:42:47.182Z,20.84
2018-06-07T18:45:16.334Z,20.70
2018-06-07T18:47:45.515Z,20.78
2018-06-07T18:50:14.746Z,20.79
2018-06-07T18:52:43.901Z,20.68
2018-06-07T18:55:13.388Z,20.76
2018-06-07T18:57:42.555Z,20.78
2018-06-07T19:00:11.713Z,20.76
2018-06-07T19:02:40.879Z,20.75
2018-06-07T19:05:10.033Z,20.71
2018-06-07T19:07:39.199Z,20.65
2018-06-07T19:10:12.262Z,20.65
2018-06-07T19:12:42.859Z,20.63
2018-06-07T19:15:14.841Z,20.60
2018-06-07T19:17:44.653Z,20.52
2018-06-07T19:20:19.237Z,20.50
2018-06-07T19:22:48.391Z,20.44
2018-06-07T19:25:23.251Z,20.43
2018-06-07T19:27:52.412Z,20.37
2018-06-07T19:30:21.580Z,20.36
2018-06-07T19:32:55.954Z,20.32
2018-06-07T19:35:25.101Z,20.31
2018-06-07T19:37:54.275Z,20.32
2018-06-07T19:40:28.904Z,20.30
2018-06-07T19:42:58.170Z,20.29
2018-06-07T19:45:27.357Z,20.32
2018-06-07T19:47:56.545Z,20.36
2018-06-07T19:50:25.861Z,20.35
2018-06-07T19:52:55.026Z,20.36
2018-06-07T19:55:24.206Z,20.36
2018-06-07T19:57:53.405Z,20.32
2018-06-07T20:00:22.617Z,20.31
2018-06-07T20:02:51.774Z,20.34
2018-06-07T20:05:20.976Z,20.40
2018-06-07T20:07:50.143Z,20.31
2018-06-07T20:10:19.348Z,20.26
2018-06-07T20:12:48.621Z,20.20
2018-06-07T20:15:17.824Z,20.13
2018-06-07T20:17:47.045Z,20.17
2018-06-07T20:20:16.221Z,20.18
2018-06-07T20:22:45.465Z,20.19
2018-06-07T20:25:14.645Z,20.20
2018-06-07T20:27:43.854Z,20.17
2018-06-07T20:30:13.085Z,20.18
2018-06-07T20:32:42.244Z,20.14
2018-06-07T20:35:11.609Z,20.13
2018-06-07T20:37:40.798Z,20.10
2018-06-07T20:40:09.953Z,20.09
2018-06-07T20:42:39.415Z,20.05
2018-06-07T20:45:08.573Z,20.03
2018-06-07T20:47:37.769Z,20.00
2018-06-07T20:50:06.953Z,19.96
2018-06-07T20:52:36.137Z,19.97
2018-06-07T20:55:05.445Z,19.96
2018-06-07T20:57:35.001Z,19.93
2018-06-07T21:00:03.969Z,19.93
2018-06-07T21:02:33.173Z,19.92
2018-06-07T21:05:02.427Z,19.92
2018-06-07T21:07:31.581Z,19.90
2018-06-07T21:10:00.916Z,19.84
2018-06-07T21:12:30.376Z,19.79
2018-06-07T21:14:59.634Z,19.79
2018-06-07T21:17:28.833Z,19.76
2018-06-07T21:19:58.061Z,19.74
2018-06-07T21:22:27.688Z,19.74
2018-06-07T21:24:56.823Z,19.71
2018-06-07T21:27:25.998Z,19.72
2018-06-07T21:29:55.157Z,19.71
2018-06-07T21:32:24.589Z,19.74
2018-06-07T21:34:53.741Z,19.72
2018-06-07T21:37:22.889Z,19.75
2018-06-07T21:39:52.217Z,19.69
2018-06-07T21:42:21.389Z,19.68
2018-06-07T21:44:50.538Z,19.63
2018-06-07T21:47:19.701Z,19.65
2018-06-07T21:49:48.845Z,19.61
2018-06-07T21:52:18.095Z,19.62
2018-06-07T21:54:47.249Z,19.57
2018-06-07T21:57:16.421Z,19.59
2018-06-07T21:59:45.605Z,19.64
2018-06-07T22:02:14.765Z,19.59
2018-06-07T22:04:43.921Z,19.57
2018-06-07T22:07:13.095Z,19.56
2018-06-07T22:09:42.240Z,19.60
2018-06-07T22:12:11.445Z,19.61
2018-06-07T22:14:40.381Z,19.56
2018-06-07T22:17:09.539Z,19.58
2018-06-07T22:19:38.690Z,19.58
2018-06-07T22:22:07.869Z,19.51
2018-06-07T22:24:37.037Z,19.48
2018-06-07T22:27:06.225Z,19.51
2018-06-07T22:29:35.755Z,19.50
2018-06-07T22:32:04.884Z,19.51
2018-06-07T22:34:34.033Z,19.54
2018-06-07T22:37:03.201Z,19.52
2018-06-07T22:39:32.358Z,19.52
2018-06-07T22:42:01.517Z,19.53
2018-06-07T22:44:30.688Z,19.50
2018-06-07T22:46:59.920Z,19.52
2018-06-07T22:49:29.072Z,19.54
2018-06-07T22:51:58.594Z,19.56
2018-06-07T22:54:27.745Z,19.56
2018-06-07T22:56:56.892Z,19.57
2018-06-07T22:59:26.333Z,19.56
2018-06-07T23:01:55.479Z,19.52
2018-06-07T23:04:24.653Z,19.56
2018-06-07T23:06:53.809Z,19.57
2018-06-07T23:09:22.965Z,19.61
2018-06-07T23:11:52.129Z,19.57
2018-06-07T23:14:21.426Z,19.49
2018-06-07T23:16:50.573Z,19.40
2018-06-07T23:19:19.521Z,19.42
2018-06-07T23:21:48.689Z,19.50
2018-06-07T23:24:17.849Z,19.37
2018-06-07T23:26:47.172Z,19.34
2018-06-07T23:29:16.329Z,19.31
2018-06-07T23:31:45.495Z,19.32
2018-06-07T23:34:14.970Z,19.32
2018-06-07T23:36:44.129Z,19.38
2018-06-07T23:39:13.290Z,19.41
2018-06-07T23:41:42.457Z,19.40
2018-06-07T23:44:11.626Z,19.39
2018-06-07T23:46:40.785Z,19.38
2018-06-07T23:49:09.934Z,19.34
2018-06-07T23:51:39.101Z,19.35
2018-06-07T23:54:08.273Z,19.38
2018-06-07T23:56:37.425Z,19.44
2018-06-07T23:59:06.598Z,19.47
